createdAt,value
2024-03-15T00:00:00.361Z,38.53
2024-03-15T00:05:02.232Z,34.20
2024-03-15T00:10:04.310Z,34.80
2024-03-15T00:15:06.431Z,30.63
2024-03-15T00:20:09.236Z,29.80
2024-03-15T00:25:11.137Z,24.60
2024-03-15T00:30:12.956Z,28.77
2024-03-15T00:35:15.065Z,25.90
2024-03-15T00:40:17.069Z,28.48
2024-03-15T00:45:18.814Z,25.98
2024-03-15T00:50:20.533Z,30.13
2024-03-15T00:55:22.204Z,27.35
2024-03-15T01:00:23.963Z,23.63
2024-03-15T01:05:25.741Z,30.15
2024-03-15T01:10:27.663Z,23.98
2024-03-15T01:15:29.358Z,22.55
2024-03-15T01:20:31.646Z,25.58
2024-03-15T01:25:37.142Z,20.63
2024-03-15T01:30:39.335Z,28.20
2024-03-15T01:35:41.092Z,32.17
2024-03-15T01:40:43.266Z,30.45
2024-03-15T01:45:45.064Z,21.02
2024-03-15T01:50:49.036Z,25.77
2024-03-15T01:55:50.787Z,25.73
2024-03-15T02:00:52.593Z,27.67
2024-03-15T02:05:54.382Z,26.95
2024-03-15T02:10:56.069Z,26.80
2024-03-15T02:15:57.952Z,28.10
2024-03-15T02:20:59.717Z,26.70
2024-03-15T02:26:01.468Z,27.02
2024-03-15T02:31:03.309Z,24.20
2024-03-15T02:36:05.296Z,29.17
2024-03-15T02:41:10.778Z,28.73
2024-03-15T02:46:12.461Z,22.08
2024-03-15T02:51:14.198Z,21.48
2024-03-15T02:56:16.395Z,28.60
2024-03-15T03:01:18.125Z,24.25
2024-03-15T03:06:19.938Z,25.30
2024-03-15T03:11:22.084Z,16.67
2024-03-15T03:16:23.753Z,20.13
2024-03-15T03:21:27.210Z,19.20
2024-03-15T03:26:29.085Z,22.65
2024-03-15T03:31:30.723Z,21.98
2024-03-15T03:36:33.141Z,18.48
2024-03-15T03:41:34.993Z,18.20
2024-03-15T03:46:36.689Z,19.33
2024-03-15T03:51:38.439Z,18.42
2024-03-15T03:56:40.268Z,22.55
2024-03-15T04:01:42.002Z,23.95
2024-03-15T04:06:52.798Z,21.17
2024-03-15T04:11:54.594Z,19.83
2024-03-15T04:16:56.273Z,18.58
2024-03-15T04:21:59.848Z,19.92
2024-03-15T04:27:01.755Z,22.95
2024-03-15T04:32:04.069Z,14.05
2024-03-15T04:37:06.031Z,18.38
2024-03-15T04:42:08.048Z,17.75
2024-03-15T04:47:09.818Z,17.98
2024-03-15T04:52:13.152Z,20.00
2024-03-15T04:57:16.399Z,19.35
2024-03-15T05:02:18.128Z,21.35
2024-03-15T05:07:19.805Z,20.05
2024-03-15T05:12:21.490Z,23.60
2024-03-15T05:17:23.193Z,17.67
2024-03-15T05:22:28.745Z,17.95
2024-03-15T05:27:30.443Z,20.58
2024-03-15T05:32:33.524Z,18.92
2024-03-15T05:37:35.773Z,21.15
2024-03-15T05:42:37.495Z,21.02
2024-03-15T05:47:39.175Z,18.67
2024-03-15T05:52:40.854Z,16.60
2024-03-15T05:57:43.018Z,18.17
2024-03-15T06:02:45.334Z,20.23
2024-03-15T06:07:48.376Z,18.23
2024-03-15T06:12:52.559Z,20.98
2024-03-15T06:17:54.664Z,21.13
2024-03-15T06:22:56.337Z,20.58
2024-03-15T06:28:00.476Z,20.05
2024-03-15T06:33:03.579Z,19.10
2024-03-15T06:38:23.596Z,17.92
2024-03-15T06:43:51.181Z,16.23
2024-03-15T06:48:59.699Z,16.70
2024-03-15T06:54:02.852Z,18.83
2024-03-15T06:59:05.946Z,17.38
2024-03-15T07:04:08.348Z,18.45
2024-03-15T07:09:16.231Z,18.15
2024-03-15T07:14:19.302Z,17.38
2024-03-15T07:19:23.651Z,18.45
2024-03-15T07:24:25.546Z,24.15
2024-03-15T07:29:28.171Z,16.60
2024-03-15T07:34:32.121Z,23.23
2024-03-15T07:39:34.056Z,17.63
2024-03-15T07:44:37.062Z,13.82
2024-03-15T07:49:39.744Z,17.80
2024-03-15T07:54:41.560Z,16.58
2024-03-15T07:59:44.419Z,9.07
2024-03-15T08:04:49.069Z,9.05
2024-03-15T08:09:50.936Z,11.55
2024-03-15T08:14:52.601Z,11.18
2024-03-15T08:19:54.372Z,9.95
2024-03-15T08:24:56.079Z,9.35
2024-03-15T08:29:58.287Z,7.72
2024-03-15T08:35:00.311Z,6.80
2024-03-15T08:40:04.342Z,11.65
2024-03-15T08:45:10.206Z,6.63
2024-03-15T08:50:13.005Z,8.25
2024-03-15T08:55:15.177Z,6.65
2024-03-15T09:00:17.406Z,7.60
2024-03-15T09:05:19.895Z,7.18
2024-03-15T09:10:22.316Z,5.88
2024-03-15T09:15:24.700Z,3.85
2024-03-15T09:20:32.467Z,5.68
2024-03-15T09:25:34.186Z,5.68
2024-03-15T09:30:57.642Z,4.50
2024-03-15T09:36:06.760Z,3.72
2024-03-15T09:41:09.009Z,3.58
2024-03-15T09:46:17.309Z,3.65
2024-03-15T09:51:19.261Z,3.90
2024-03-15T09:56:21.189Z,3.17
2024-03-15T10:01:23.321Z,6.18
2024-03-15T10:06:25.822Z,2.80
2024-03-15T10:11:28.092Z,4.30
2024-03-15T10:16:33.325Z,5.88
2024-03-15T10:21:35.034Z,4.45
2024-03-15T10:26:36.814Z,4.18
2024-03-15T10:31:38.637Z,4.85
2024-03-15T10:36:41.580Z,2.42
2024-03-15T10:41:47.111Z,7.88
2024-03-15T10:46:50.764Z,6.28
2024-03-15T10:51:53.818Z,2.75
2024-03-15T10:56:55.607Z,4.13
2024-03-15T11:01:57.495Z,2.33
2024-03-15T11:07:00.567Z,3.15
2024-03-15T11:12:05.152Z,2.70
2024-03-15T11:17:07.524Z,1.77
2024-03-15T11:22:16.569Z,2.88
2024-03-15T11:27:18.561Z,1.77
2024-03-15T11:32:20.441Z,3.35
2024-03-15T11:37:24.721Z,2.90
2024-03-15T11:42:27.478Z,2.90
2024-03-15T11:47:29.752Z,2.60
2024-03-15T11:52:31.733Z,2.13
2024-03-15T11:57:36.292Z,3.33
2024-03-15T12:02:38.923Z,2.25
2024-03-15T12:07:40.692Z,2.92
2024-03-15T12:12:47.225Z,2.65
2024-03-15T12:17:49.083Z,2.20
2024-03-15T12:22:50.772Z,2.17
2024-03-15T12:27:53.100Z,2.85
2024-03-15T12:32:54.904Z,2.10
2024-03-15T12:37:56.578Z,3.78
2024-03-15T12:42:58.348Z,2.13
2024-03-15T12:48:00.352Z,1.88
2024-03-15T12:53:06.624Z,1.38
2024-03-15T12:58:09.283Z,1.27
2024-03-15T13:03:14.844Z,1.13
2024-03-15T13:08:16.679Z,0.82
2024-03-15T13:13:18.350Z,1.38
2024-03-15T13:18:21.273Z,3.17
2024-03-15T13:23:23.540Z,4.57
2024-03-15T13:28:25.259Z,2.22
2024-03-15T13:33:27.359Z,6.85
2024-03-15T13:38:29.112Z,2.65
2024-03-15T13:43:31.103Z,5.25
2024-03-15T13:48:33.625Z,3.22
2024-03-15T13:53:35.304Z,2.50
2024-03-15T13:58:36.997Z,2.60
2024-03-15T14:03:38.688Z,5.40
2024-03-15T14:08:40.444Z,2.95
2024-03-15T14:13:42.150Z,1.73
2024-03-15T14:18:46.021Z,2.00
2024-03-15T14:23:47.740Z,1.35
2024-03-15T14:28:49.393Z,3.63
2024-03-15T14:33:51.134Z,1.98
2024-03-15T14:38:55.595Z,6.20
2024-03-15T14:43:57.314Z,2.08
2024-03-15T14:48:58.994Z,2.03
2024-03-15T14:54:00.784Z,1.98
2024-03-15T14:59:02.525Z,2.33
2024-03-15T15:04:04.435Z,2.95
2024-03-15T15:09:12.226Z,5.63
2024-03-15T15:14:14.230Z,2.95
2024-03-15T15:19:15.966Z,1.23
2024-03-15T15:24:17.716Z,1.60
2024-03-15T15:29:19.857Z,2.17
2024-03-15T15:34:22.056Z,2.50
2024-03-15T15:39:25.206Z,1.67
2024-03-15T15:44:26.954Z,4.15
2024-03-15T15:49:30.241Z,5.10
2024-03-15T15:54:32.200Z,1.48
2024-03-15T15:59:34.043Z,3.55
2024-03-15T16:04:35.747Z,3.55
2024-03-15T16:09:37.566Z,2.92
2024-03-15T16:14:39.646Z,1.67
2024-03-15T16:19:41.460Z,2.20
2024-03-15T16:24:43.636Z,3.10
2024-03-15T16:29:45.365Z,3.25
2024-03-15T16:34:48.921Z,2.40
2024-03-15T16:39:50.770Z,1.70
2024-03-15T16:44:54.926Z,2.40
2024-03-15T16:49:58.236Z,3.33
2024-03-15T16:54:59.948Z,1.15
2024-03-15T17:00:02.585Z,1.95
2024-03-15T17:05:04.429Z,1.50
2024-03-15T17:10:07.094Z,3.20
2024-03-15T17:15:10.782Z,1.08
2024-03-15T17:20:12.665Z,1.13
2024-03-15T17:25:14.506Z,1.40
2024-03-15T17:30:16.275Z,3.35
2024-03-15T17:35:18.009Z,5.13
2024-03-15T17:40:19.776Z,2.78
2024-03-15T17:45:21.546Z,3.08
2024-03-15T17:50:29.031Z,1.77
2024-03-15T17:55:31.021Z,1.92
2024-03-15T18:00:33.067Z,3.03
2024-03-15T18:05:35.423Z,1.48
2024-03-15T18:10:37.171Z,2.65
2024-03-15T18:15:39.096Z,2.97
2024-03-15T18:20:41.052Z,1.88
2024-03-15T18:25:42.770Z,1.70
2024-03-15T18:30:49.487Z,3.08
2024-03-15T18:35:56.928Z,3.00
2024-03-15T18:40:58.623Z,4.25
2024-03-15T18:46:01.265Z,2.47
2024-03-15T18:51:03.143Z,4.57
2024-03-15T18:56:06.850Z,2.38
2024-03-15T19:01:11.748Z,2.20
2024-03-15T19:06:13.542Z,2.63
2024-03-15T19:11:15.886Z,3.40
2024-03-15T19:16:17.566Z,4.63
2024-03-15T19:21:19.264Z,3.92
2024-03-15T19:26:21.572Z,3.63
2024-03-15T19:31:23.276Z,3.33
2024-03-15T19:36:24.962Z,3.63
2024-03-15T19:41:26.934Z,3.38
2024-03-15T19:46:28.610Z,2.30
2024-03-15T19:51:30.369Z,4.15
2024-03-15T19:56:32.104Z,3.45
2024-03-15T20:01:33.769Z,5.18
2024-03-15T20:06:35.768Z,3.72
2024-03-15T20:11:37.971Z,2.35
2024-03-15T20:16:39.709Z,3.92
2024-03-15T20:21:45.724Z,3.47
2024-03-15T20:26:49.246Z,3.22
2024-03-15T20:31:51.136Z,2.22
2024-03-15T20:36:52.916Z,2.10
2024-03-15T20:41:54.626Z,2.17
2024-03-15T20:46:56.597Z,2.75
2024-03-15T20:51:58.294Z,4.22
2024-03-15T20:57:00.048Z,1.60
2024-03-15T21:02:09.928Z,1.45
2024-03-15T21:07:12.100Z,1.73
2024-03-15T21:12:14.120Z,1.85
2024-03-15T21:17:16.627Z,2.75
2024-03-15T21:22:19.318Z,2.67
2024-03-15T21:27:22.153Z,1.85
2024-03-15T21:32:23.906Z,1.60
2024-03-15T21:37:25.819Z,2.20
2024-03-15T21:42:27.566Z,1.77
2024-03-15T21:47:29.318Z,4.13
2024-03-15T21:52:31.045Z,1.77
2024-03-15T21:57:33.195Z,1.98
2024-03-15T22:02:36.561Z,2.15
2024-03-15T22:07:39.755Z,2.17
2024-03-15T22:12:44.477Z,2.65
2024-03-15T22:17:46.405Z,1.85
2024-03-15T22:22:49.200Z,2.20
2024-03-15T22:27:50.942Z,3.30
2024-03-15T22:32:53.623Z,1.85
2024-03-15T22:37:55.680Z,2.90
2024-03-15T22:42:57.470Z,2.00
2024-03-15T22:47:59.192Z,2.67
2024-03-15T22:53:00.891Z,2.15
2024-03-15T22:58:02.917Z,6.68
2024-03-15T23:03:07.748Z,1.83
2024-03-15T23:08:09.578Z,3.97
2024-03-15T23:13:11.457Z,1.88
2024-03-15T23:18:13.262Z,1.77
2024-03-15T23:23:16.474Z,2.92
2024-03-15T23:28:18.415Z,2.88
2024-03-15T23:33:20.983Z,2.58
2024-03-15T23:38:22.752Z,2.40
2024-03-15T23:43:24.448Z,1.88
2024-03-15T23:48:28.401Z,2.47
2024-03-15T23:53:30.128Z,1.40
2024-03-15T23:58:33.518Z,3.15
